Time;durP1;ratioP1;P1;durP2;ratioP2;P2;SDS_P1;SDS_P2;PMS_P1;PMS_P2;Temp;Humidity;BMP_temperature;BMP_pressure;BME280_temperature;BME280_humidity;BME280_pressure;Samples;Min_cycle;Max_cycle;Signal;HPM_P1;HPM_P2
2022/01/14 00:02:02;;;;;;;7.63;4.80;;;15.90;59.70;;;;;;5050122;28;20426;-81
2022/01/14 00:04:30;;;;;;;10.03;5.37;;;15.90;59.70;;;;;;5066030;28;20553;-81
2022/01/14 00:06:59;;;;;;;7.83;4.83;;;15.90;59.80;;;;;;5070353;28;20466;-81
2022/01/14 00:09:27;;;;;;;7.13;4.40;;;15.90;59.70;;;;;;5071980;28;20449;-81
2022/01/14 00:11:57;;;;;;;7.80;4.43;;;15.90;59.80;;;;;;5067527;28;20438;-81
2022/01/14 00:14:37;;;;;;;4.80;4.30;;;15.90;59.90;;;;;;5077506;28;20435;-81
2022/01/14 00:17:05;;;;;;;7.70;4.20;;;15.90;59.80;;;;;;5078306;28;20453;-81
2022/01/14 00:19:33;;;;;;;5.63;4.60;;;15.90;59.80;;;;;;5074938;28;20477;-81
2022/01/14 00:22:08;;;;;;;7.73;4.37;;;15.90;59.70;;;;;;5078422;28;20427;-81
2022/01/14 00:33:05;;;;;;;4.50;4.07;;;15.90;60.00;;;;;;5078044;28;20445;-81
2022/01/14 00:35:33;;;;;;;6.33;4.30;;;15.80;59.90;;;;;;5077819;28;20442;-81
2022/01/14 00:38:02;;;;;;;5.90;4.70;;;15.90;60.00;;;;;;5065570;28;20473;-80
2022/01/14 00:40:30;;;;;;;7.97;5.10;;;15.80;59.80;;;;;;5068037;28;20477;-81
2022/01/14 00:42:58;;;;;;;6.93;4.57;;;15.90;59.90;;;;;;5068171;28;20450;-81
2022/01/14 00:45:26;;;;;;;6.97;4.80;;;15.90;60.00;;;;;;5048445;28;20498;-81
2022/01/14 00:47:54;;;;;;;6.60;4.37;;;15.90;59.90;;;;;;5049512;28;20442;-81
2022/01/14 00:50:22;;;;;;;6.00;4.70;;;15.90;59.90;;;;;;5055426;28;20494;-80
2022/01/14 00:52:50;;;;;;;5.00;4.57;;;15.90;60.00;;;;;;5055280;28;20494;-80
2022/01/14 00:55:26;;;;;;;4.97;4.40;;;15.90;59.80;;;;;;5055462;28;20501;-80
2022/01/14 01:00:40;;;;;;;5.87;4.30;;;15.90;60.50;;;;;;5054170;28;20501;-80
2022/01/14 01:03:08;;;;;;;6.30;4.00;;;15.90;59.90;;;;;;5053309;28;20549;-80
2022/01/14 01:05:36;;;;;;;5.33;4.33;;;15.90;59.90;;;;;;5055350;28;20577;-80
2022/01/14 01:08:09;;;;;;;4.80;4.30;;;15.90;59.90;;;;;;5065497;28;20431;-80
2022/01/14 01:10:46;;;;;;;4.67;4.27;;;15.90;59.90;;;;;;5067231;28;20489;-80
2022/01/14 01:13:19;;;;;;;5.50;4.70;;;15.90;59.90;;;;;;5069058;28;20450;-81
2022/01/14 01:15:49;;;;;;;8.70;4.90;;;15.80;59.80;;;;;;5068955;28;20449;-80
2022/01/14 01:18:18;;;;;;;7.40;4.70;;;15.80;59.80;;;;;;5064281;28;20519;-80
2022/01/14 01:20:46;;;;;;;6.83;4.77;;;15.90;59.90;;;;;;5063627;28;20482;-80
2022/01/14 01:23:14;;;;;;;7.20;4.73;;;15.90;59.90;;;;;;5048518;28;20447;-81
2022/01/14 01:25:47;;;;;;;7.20;4.17;;;15.90;59.80;;;;;;5049754;28;20498;-81
2022/01/14 01:28:15;;;;;;;5.53;4.27;;;15.90;59.80;;;;;;5065185;28;20470;-80
2022/01/14 01:30:52;;;;;;;7.07;4.50;;;15.90;60.40;;;;;;5069415;28;20453;-81
2022/01/14 01:33:20;;;;;;;5.50;4.47;;;15.80;59.70;;;;;;5068242;28;20440;-81
2022/01/14 01:35:48;;;;;;;7.07;4.30;;;15.90;59.80;;;;;;5063409;28;20453;-80
2022/01/14 01:38:17;;;;;;;5.17;4.47;;;15.80;59.80;;;;;;5059507;28;20453;-80
2022/01/14 01:40:48;;;;;;;7.50;4.70;;;15.80;59.80;;;;;;5068871;28;20466;-80
2022/01/14 01:43:16;;;;;;;6.63;4.23;;;15.80;59.80;;;;;;5063287;28;20431;-80
2022/01/14 01:45:47;;;;;;;8.63;4.57;;;15.80;59.80;;;;;;5066956;28;20534;-80
2022/01/14 01:48:15;;;;;;;8.27;4.80;;;15.80;59.80;;;;;;5066892;28;20466;-80
2022/01/14 01:50:43;;;;;;;14.50;4.17;;;15.80;59.70;;;;;;5055702;28;20451;-81
2022/01/14 01:53:11;;;;;;;5.50;4.10;;;15.80;59.80;;;;;;5056766;28;20953;-81
2022/01/14 01:55:39;;;;;;;7.77;4.33;;;15.80;59.70;;;;;;5059280;28;20435;-81
2022/01/14 01:58:08;;;;;;;5.87;4.30;;;15.80;59.70;;;;;;5058474;28;20472;-81
2022/01/14 02:00:36;;;;;;;5.00;4.10;;;15.80;59.70;;;;;;5055814;28;20857;-81
2022/01/14 02:03:04;;;;;;;6.63;4.30;;;15.80;59.70;;;;;;5055516;28;20459;-81
2022/01/14 02:05:32;;;;;;;5.30;3.70;;;15.80;59.70;;;;;;5063497;28;20471;-80
2022/01/14 02:08:00;;;;;;;7.17;4.30;;;15.80;59.70;;;;;;5068365;28;20445;-81
2022/01/14 02:10:59;;;;;;;6.80;4.27;;;15.80;59.70;;;;;;5066998;28;20533;-81
2022/01/14 02:13:56;;;;;;;8.33;4.10;;;15.80;59.70;;;;;;5066348;28;20482;-81
2022/01/14 02:23:01;;;;;;;4.87;4.17;;;15.80;59.80;;;;;;5024811;28;20478;-80
2022/01/14 02:25:29;;;;;;;4.73;4.07;;;15.80;59.90;;;;;;5066771;28;20490;-80
2022/01/14 02:27:59;;;;;;;5.37;4.23;;;15.80;59.80;;;;;;5066751;28;20430;-80
2022/01/14 02:30:27;;;;;;;7.73;4.03;;;15.80;59.80;;;;;;5066506;28;20454;-81
2022/01/14 02:32:55;;;;;;;5.27;4.27;;;15.80;59.80;;;;;;5067283;28;20445;-81
2022/01/14 02:35:24;;;;;;;7.57;4.40;;;15.80;59.80;;;;;;5067859;28;20463;-81
2022/01/14 02:37:52;;;;;;;5.23;3.90;;;15.80;59.80;;;;;;5067291;28;20474;-81
2022/01/14 02:40:22;;;;;;;5.40;3.87;;;15.80;59.70;;;;;;5065004;28;20474;-81
2022/01/14 02:42:50;;;;;;;7.07;4.13;;;15.80;59.80;;;;;;5067266;28;20462;-81
2022/01/14 02:45:18;;;;;;;5.60;4.17;;;15.80;59.80;;;;;;5067025;28;20501;-81
2022/01/14 02:47:46;;;;;;;6.60;3.87;;;15.80;59.60;;;;;;5063787;28;20466;-80
2022/01/14 02:50:15;;;;;;;5.60;3.90;;;15.80;59.60;;;;;;5056448;28;20465;-80
2022/01/14 02:52:56;;;;;;;6.00;3.90;;;15.80;59.70;;;;;;5067177;28;20458;-81
2022/01/14 02:55:29;;;;;;;6.27;4.10;;;15.90;59.80;;;;;;5067001;28;20426;-80
2022/01/14 02:57:59;;;;;;;7.03;4.10;;;15.90;59.70;;;;;;5061741;28;20477;-80
2022/01/14 03:00:28;;;;;;;5.40;4.00;;;15.90;59.70;;;;;;5065895;28;20491;-80
2022/01/14 03:02:56;;;;;;;5.67;4.10;;;15.90;59.70;;;;;;5065770;28;20469;-80
2022/01/14 03:05:24;;;;;;;5.00;4.17;;;15.90;59.80;;;;;;5066666;28;20463;-80
2022/01/14 03:07:53;;;;;;;5.37;3.97;;;15.90;59.70;;;;;;5066365;28;20470;-80
2022/01/14 03:10:21;;;;;;;5.40;4.50;;;15.90;59.70;;;;;;5065618;28;20486;-81
2022/01/14 03:12:49;;;;;;;4.43;4.03;;;15.90;59.60;;;;;;5063954;28;20462;-81
2022/01/14 03:15:16;;;;;;;5.20;4.17;;;15.90;59.70;;;;;;5065136;28;20482;-81
2022/01/14 03:17:44;;;;;;;3.90;3.50;;;15.80;59.60;;;;;;5066571;28;20941;-80
2022/01/14 03:20:32;;;;;;;7.03;4.43;;;15.90;59.70;;;;;;5065117;28;20496;-80
2022/01/14 03:23:05;;;;;;;5.07;3.77;;;15.80;59.60;;;;;;5052927;28;20441;-80
2022/01/14 03:25:47;;;;;;;7.10;4.53;;;15.90;59.80;;;;;;5064161;28;20470;-80
2022/01/14 03:28:20;;;;;;;4.13;3.73;;;15.90;59.70;;;;;;5061177;28;20453;-81
2022/01/14 03:30:48;;;;;;;5.37;4.00;;;15.90;59.70;;;;;;5055544;28;20501;-81
2022/01/14 03:33:15;;;;;;;4.97;4.00;;;15.90;59.70;;;;;;5046945;28;20471;-81
2022/01/14 03:35:44;;;;;;;5.20;3.93;;;15.90;59.80;;;;;;5049539;28;20495;-81
2022/01/14 03:38:13;;;;;;;7.57;4.10;;;15.90;59.80;;;;;;5041209;28;20442;-81
2022/01/14 03:40:41;;;;;;;5.60;4.00;;;15.90;59.70;;;;;;5047336;28;20478;-81
2022/01/14 03:43:09;;;;;;;5.80;3.60;;;15.90;59.70;;;;;;5045488;28;20511;-81
2022/01/14 03:45:38;;;;;;;3.93;3.57;;;15.90;59.60;;;;;;5047179;28;20458;-80
2022/01/14 03:48:06;;;;;;;5.10;4.10;;;15.90;59.60;;;;;;5046671;28;20534;-81
2022/01/14 03:50:34;;;;;;;7.33;4.40;;;15.90;59.70;;;;;;5050249;28;20482;-80
2022/01/14 03:53:02;;;;;;;6.40;4.43;;;15.90;59.60;;;;;;5045528;28;20435;-80
2022/01/14 03:55:38;;;;;;;4.60;4.20;;;15.90;59.70;;;;;;5046454;28;20895;-80
2022/01/14 03:58:06;;;;;;;5.07;4.20;;;15.90;59.70;;;;;;5045711;28;20801;-80
2022/01/14 04:00:34;;;;;;;4.37;3.27;;;15.90;59.70;;;;;;5045118;28;20533;-80
2022/01/14 04:03:02;;;;;;;4.73;3.73;;;15.90;59.60;;;;;;5047498;28;20471;-80
2022/01/14 04:05:31;;;;;;;10.60;4.33;;;15.90;59.70;;;;;;5049307;28;20483;-80
2022/01/14 04:07:59;;;;;;;5.23;4.33;;;15.90;59.70;;;;;;5049838;28;20519;-80
2022/01/14 04:10:27;;;;;;;5.77;3.97;;;15.90;59.60;;;;;;5046099;28;20522;-80
2022/01/14 04:13:00;;;;;;;3.70;3.40;;;15.90;59.70;;;;;;5046699;28;20607;-80
2022/01/14 04:15:36;;;;;;;3.70;3.40;;;15.90;59.60;;;;;;5046417;28;20414;-81
2022/01/14 04:18:04;;;;;;;5.60;3.93;;;15.90;59.60;;;;;;5043334;28;20537;-80
2022/01/14 04:20:33;;;;;;;4.23;3.83;;;15.90;59.70;;;;;;5047615;28;20459;-80
2022/01/14 04:23:01;;;;;;;8.20;4.20;;;15.90;59.60;;;;;;5047564;28;21084;-80
2022/01/14 04:25:29;;;;;;;6.50;3.70;;;15.90;59.60;;;;;;5049265;28;20553;-81
2022/01/14 04:27:59;;;;;;;3.43;3.23;;;15.90;59.70;;;;;;5045575;28;20483;-81
2022/01/14 04:30:26;;;;;;;6.50;3.53;;;15.80;59.70;;;;;;5043066;28;20538;-81
2022/01/14 04:32:54;;;;;;;5.73;4.03;;;15.80;59.60;;;;;;5046555;28;20443;-81
2022/01/14 04:35:23;;;;;;;7.30;4.17;;;15.80;59.60;;;;;;5048473;28;20503;-80
2022/01/14 04:37:50;;;;;;;4.50;4.10;;;15.80;59.60;;;;;;5049890;28;20567;-81
2022/01/14 04:40:18;;;;;;;4.73;3.50;;;15.80;59.60;;;;;;5056070;28;20487;-80
2022/01/14 04:42:46;;;;;;;4.33;3.93;;;15.80;59.60;;;;;;5048447;28;20475;-80
2022/01/14 04:45:28;;;;;;;5.53;3.73;;;15.80;59.70;;;;;;5037712;28;20451;-80
2022/01/14 04:47:56;;;;;;;6.37;3.80;;;15.80;59.70;;;;;;5037553;28;20478;-81
2022/01/14 04:50:25;;;;;;;4.30;3.90;;;15.70;59.70;;;;;;5036990;28;20463;-80
2022/01/14 04:52:53;;;;;;;5.57;4.10;;;15.70;59.60;;;;;;5037801;28;20435;-81
2022/01/14 04:55:23;;;;;;;6.03;4.30;;;15.70;59.70;;;;;;5041045;28;20471;-81
2022/01/14 04:57:51;;;;;;;6.87;4.20;;;15.70;59.80;;;;;;5060463;28;20556;-81
2022/01/14 05:00:22;;;;;;;4.10;3.70;;;15.70;59.80;;;;;;5061118;28;20549;-80
2022/01/14 05:02:51;;;;;;;6.47;3.80;;;15.70;59.90;;;;;;5060139;28;20478;-80
2022/01/14 05:05:21;;;;;;;4.30;3.90;;;15.70;59.80;;;;;;5060502;28;20506;-80
2022/01/14 05:07:50;;;;;;;6.03;3.80;;;15.70;59.80;;;;;;5061223;28;20427;-80
2022/01/14 05:10:25;;;;;;;5.73;4.30;;;15.60;59.80;;;;;;5061075;28;20498;-80
2022/01/14 05:12:53;;;;;;;7.93;3.77;;;15.60;59.90;;;;;;5059327;28;20493;-80
2022/01/14 05:15:22;;;;;;;5.43;4.40;;;15.60;59.80;;;;;;5059318;28;20430;-80
2022/01/14 05:17:51;;;;;;;4.97;4.00;;;15.70;59.90;;;;;;5060747;28;20498;-80
2022/01/14 05:20:19;;;;;;;7.00;3.40;;;15.60;59.80;;;;;;5059213;28;20466;-80
2022/01/14 05:22:46;;;;;;;5.93;3.90;;;15.70;59.80;;;;;;5059915;28;20518;-80
2022/01/14 05:25:15;;;;;;;4.80;4.10;;;15.70;59.80;;;;;;5059022;28;20448;-80
2022/01/14 05:27:43;;;;;;;7.83;4.60;;;15.70;59.80;;;;;;5055535;28;20546;-81
2022/01/14 05:30:12;;;;;;;4.20;3.53;;;15.70;59.80;;;;;;5053842;28;20473;-80
2022/01/14 05:32:46;;;;;;;9.03;4.97;;;15.70;59.80;;;;;;5051331;28;20439;-80
2022/01/14 05:35:15;;;;;;;13.60;4.20;;;15.70;59.70;;;;;;5060075;28;20433;-80
2022/01/14 05:37:43;;;;;;;6.20;4.30;;;15.70;59.70;;;;;;5059709;28;20462;-80
2022/01/14 05:40:12;;;;;;;6.30;4.57;;;15.70;59.70;;;;;;5058686;28;20463;-80
2022/01/14 05:42:41;;;;;;;4.37;3.80;;;15.70;59.80;;;;;;5059078;28;20487;-80
2022/01/14 05:45:10;;;;;;;4.93;4.30;;;15.70;59.70;;;;;;5059623;28;20526;-80
2022/01/14 05:47:38;;;;;;;5.47;4.50;;;15.70;59.70;;;;;;5049898;28;20555;-80
2022/01/14 05:50:09;;;;;;;3.63;3.33;;;15.70;59.70;;;;;;5039948;28;20546;-80
2022/01/14 05:52:37;;;;;;;4.47;4.00;;;15.80;59.80;;;;;;5038815;28;20503;-80
2022/01/14 05:55:06;;;;;;;4.73;4.00;;;15.80;59.70;;;;;;5038076;28;21033;-80
2022/01/14 05:57:37;;;;;;;4.03;3.10;;;15.70;59.60;;;;;;5038563;28;20526;-80
2022/01/14 06:00:06;;;;;;;6.23;3.90;;;15.70;59.70;;;;;;5037196;28;20487;-80
2022/01/14 06:02:34;;;;;;;3.83;3.47;;;15.70;59.70;;;;;;5038751;28;20463;-80
2022/01/14 06:05:02;;;;;;;7.60;4.37;;;15.80;59.80;;;;;;5059929;28;20492;-80
2022/01/14 06:07:31;;;;;;;4.07;3.67;;;15.80;59.70;;;;;;5058868;28;20469;-80
2022/01/14 06:09:59;;;;;;;6.30;4.00;;;15.80;59.80;;;;;;5058540;28;20486;-80
2022/01/14 06:12:27;;;;;;;6.00;4.00;;;15.70;59.70;;;;;;5059138;28;20454;-80
2022/01/14 06:14:56;;;;;;;4.87;4.00;;;15.80;59.70;;;;;;5058859;28;20439;-80
2022/01/14 06:17:24;;;;;;;4.87;3.60;;;15.80;59.70;;;;;;5058605;28;20430;-80
2022/01/14 06:19:52;;;;;;;5.07;3.90;;;15.80;59.60;;;;;;5058632;28;20505;-80
2022/01/14 06:22:22;;;;;;;3.93;3.60;;;15.80;59.60;;;;;;5048395;28;20514;-80
2022/01/14 06:24:51;;;;;;;7.20;4.20;;;15.80;60.20;;;;;;5058547;28;20506;-80
2022/01/14 06:27:19;;;;;;;4.87;3.80;;;15.70;59.60;;;;;;5058937;28;20561;-80
2022/01/14 06:29:47;;;;;;;5.97;3.93;;;15.70;59.70;;;;;;5058931;28;20531;-80
2022/01/14 06:32:15;;;;;;;3.93;3.53;;;15.80;59.70;;;;;;5060234;28;20529;-80
2022/01/14 06:34:43;;;;;;;6.73;3.93;;;15.80;59.60;;;;;;5058623;28;20435;-80
2022/01/14 06:37:16;;;;;;;4.13;3.50;;;15.80;59.70;;;;;;5059615;28;20453;-80
2022/01/14 06:39:44;;;;;;;4.20;3.80;;;15.80;59.60;;;;;;5056927;28;20513;-80
2022/01/14 06:42:13;;;;;;;11.73;4.73;;;15.80;59.60;;;;;;5054874;28;20558;-80
2022/01/14 06:44:41;;;;;;;4.90;3.80;;;15.80;59.60;;;;;;5059133;28;20430;-80
2022/01/14 06:47:09;;;;;;;4.20;3.80;;;15.80;59.60;;;;;;5060613;28;20471;-80
2022/01/14 06:49:37;;;;;;;7.30;4.10;;;15.80;59.60;;;;;;5058483;28;20517;-80
2022/01/14 06:52:06;;;;;;;6.17;4.00;;;15.80;59.50;;;;;;5058258;28;20431;-80
2022/01/14 06:54:34;;;;;;;5.13;3.93;;;15.80;59.60;;;;;;5058750;28;20470;-80
2022/01/14 06:57:02;;;;;;;7.20;4.23;;;15.80;59.60;;;;;;5054055;28;20502;-80
2022/01/14 06:59:31;;;;;;;5.03;4.00;;;15.80;59.60;;;;;;5049550;28;20490;-80
2022/01/14 07:02:00;;;;;;;6.10;4.13;;;15.80;59.50;;;;;;5058244;28;20442;-77
2022/01/14 07:04:28;;;;;;;6.80;4.27;;;15.80;59.60;;;;;;5057773;28;20533;-80
2022/01/14 07:06:56;;;;;;;4.90;3.73;;;15.80;59.70;;;;;;5058499;28;20561;-80
2022/01/14 07:09:24;;;;;;;4.40;3.87;;;15.80;59.70;;;;;;5057742;28;20485;-80
2022/01/14 07:11:57;;;;;;;5.80;3.83;;;15.80;59.50;;;;;;5059371;28;20486;-80
2022/01/14 07:14:25;;;;;;;4.33;3.93;;;15.80;59.60;;;;;;5057173;28;20500;-80
2022/01/14 07:16:54;;;;;;;4.17;3.70;;;15.80;59.60;;;;;;5061048;28;20445;-80
2022/01/14 07:19:23;;;;;;;4.23;3.83;;;15.90;59.60;;;;;;5057350;28;20538;-80
2022/01/14 07:21:51;;;;;;;5.93;3.50;;;15.80;59.60;;;;;;5058179;28;20481;-80
2022/01/14 07:24:19;;;;;;;4.40;3.50;;;15.80;59.70;;;;;;5056628;28;20453;-80
2022/01/14 07:26:50;;;;;;;7.87;4.20;;;15.80;59.70;;;;;;5057634;28;20486;-80
2022/01/14 07:29:18;;;;;;;4.80;3.70;;;15.90;59.70;;;;;;5059967;28;20546;-80
2022/01/14 07:31:46;;;;;;;6.30;3.60;;;15.90;59.60;;;;;;5053996;28;20553;-80
2022/01/14 07:34:15;;;;;;;4.70;3.53;;;15.90;59.60;;;;;;5046541;28;20445;-80
2022/01/14 07:36:43;;;;;;;5.10;3.70;;;15.90;59.60;;;;;;5056993;28;20525;-80
2022/01/14 07:39:11;;;;;;;4.20;3.80;;;15.90;59.60;;;;;;5056804;28;20466;-80
2022/01/14 07:41:39;;;;;;;4.13;3.57;;;15.90;59.60;;;;;;5057400;28;20557;-80
2022/01/14 07:44:07;;;;;;;4.10;3.80;;;15.90;59.60;;;;;;5057171;28;20435;-80
2022/01/14 07:46:36;;;;;;;6.43;3.83;;;15.90;59.70;;;;;;5057654;28;20474;-80
2022/01/14 07:49:04;;;;;;;3.47;3.13;;;15.90;59.60;;;;;;5054021;28;20501;-80
2022/01/14 07:51:33;;;;;;;6.17;4.10;;;15.90;59.60;;;;;;5057337;28;20585;-80
2022/01/14 07:54:05;;;;;;;3.83;3.43;;;15.90;59.70;;;;;;5057462;28;20474;-80
2022/01/14 07:56:33;;;;;;;3.57;3.27;;;15.90;59.70;;;;;;5058110;28;20556;-80
2022/01/14 07:59:01;;;;;;;5.20;3.97;;;15.90;59.60;;;;;;5057569;28;20434;-80
2022/01/14 08:01:29;;;;;;;4.70;3.77;;;15.90;59.70;;;;;;5057882;28;20517;-80
2022/01/14 08:03:57;;;;;;;4.30;3.90;;;15.90;59.70;;;;;;5057065;28;20443;-80
2022/01/14 08:06:25;;;;;;;6.27;3.87;;;15.90;59.60;;;;;;5046333;28;20491;-80
2022/01/14 08:08:55;;;;;;;4.73;3.37;;;15.90;59.60;;;;;;5051051;28;20548;-80
2022/01/14 08:11:23;;;;;;;7.63;4.27;;;16.00;59.70;;;;;;5056977;28;20471;-80
2022/01/14 08:13:51;;;;;;;5.20;3.90;;;16.00;59.70;;;;;;5057743;28;20466;-80
2022/01/14 08:16:19;;;;;;;4.83;3.60;;;16.00;59.70;;;;;;5057284;28;20502;-80
2022/01/14 08:18:47;;;;;;;4.33;3.40;;;16.00;59.60;;;;;;5056704;28;20537;-80
2022/01/14 08:21:16;;;;;;;4.73;3.40;;;16.00;59.60;;;;;;5050964;28;20545;-80
2022/01/14 08:23:44;;;;;;;4.97;4.03;;;16.00;59.60;;;;;;5036590;28;20451;-80
2022/01/14 08:26:14;;;;;;;5.77;3.57;;;16.00;59.60;;;;;;5033491;28;20539;-80
2022/01/14 08:28:41;;;;;;;5.00;3.80;;;16.00;59.60;;;;;;5034449;28;20467;-80
2022/01/14 08:31:13;;;;;;;3.50;3.20;;;16.00;59.70;;;;;;5037580;28;20458;-80
2022/01/14 08:33:42;;;;;;;3.70;3.40;;;16.00;59.60;;;;;;5036774;28;20494;-80
2022/01/14 08:36:10;;;;;;;4.83;3.57;;;16.00;59.50;;;;;;5037339;28;20502;-80
2022/01/14 08:38:38;;;;;;;3.67;3.37;;;16.00;59.60;;;;;;5037575;28;20529;-80
2022/01/14 08:41:06;;;;;;;7.13;3.60;;;16.00;59.60;;;;;;5042472;28;20475;-80
2022/01/14 08:43:35;;;;;;;7.30;4.03;;;16.10;59.50;;;;;;5048520;28;20477;-80
2022/01/14 08:46:03;;;;;;;3.80;3.50;;;16.10;59.50;;;;;;5057640;28;20496;-80
2022/01/14 08:48:31;;;;;;;4.10;3.20;;;16.10;59.50;;;;;;5057148;28;20470;-80
2022/01/14 08:51:00;;;;;;;4.40;3.40;;;16.10;59.50;;;;;;5055014;28;20541;-80
2022/01/14 08:53:28;;;;;;;4.37;3.90;;;16.10;59.50;;;;;;5056174;28;20446;-80
2022/01/14 08:55:56;;;;;;;5.00;3.63;;;16.10;59.40;;;;;;5056121;28;20438;-80
2022/01/14 08:58:24;;;;;;;5.43;3.90;;;16.10;59.50;;;;;;5054507;28;20478;-80
2022/01/14 09:00:54;;;;;;;4.37;3.97;;;16.10;59.60;;;;;;5055654;28;20493;-80
2022/01/14 09:03:22;;;;;;;3.47;3.20;;;16.10;59.50;;;;;;5056022;28;20430;-80
2022/01/14 09:05:50;;;;;;;8.30;3.50;;;16.10;59.40;;;;;;5056960;28;20453;-80
2022/01/14 09:08:18;;;;;;;5.13;3.80;;;16.10;59.40;;;;;;5056829;28;20498;-80
2022/01/14 09:10:46;;;;;;;4.63;3.50;;;16.20;59.50;;;;;;5056327;28;20489;-80
2022/01/14 09:13:15;;;;;;;5.17;3.63;;;16.20;59.50;;;;;;5056886;28;20465;-80
2022/01/14 09:15:43;;;;;;;6.53;3.70;;;16.20;59.40;;;;;;5057386;28;20470;-79
2022/01/14 09:18:12;;;;;;;4.43;3.67;;;16.20;60.00;;;;;;5065357;28;20427;-79
2022/01/14 09:20:40;;;;;;;6.10;3.90;;;16.20;59.40;;;;;;5065198;28;20490;-80
2022/01/14 09:23:13;;;;;;;3.37;3.07;;;16.30;59.50;;;;;;5059165;28;20430;-79
2022/01/14 09:25:40;;;;;;;4.70;3.63;;;16.30;59.40;;;;;;5058542;28;20478;-79
2022/01/14 09:28:09;;;;;;;11.50;4.17;;;16.30;59.40;;;;;;5058965;28;20533;-79
2022/01/14 09:30:37;;;;;;;4.83;3.80;;;16.30;59.30;;;;;;5059209;28;20465;-78
2022/01/14 09:33:06;;;;;;;7.17;3.37;;;16.30;59.30;;;;;;5058684;28;20533;-79
2022/01/14 09:35:37;;;;;;;7.67;3.80;;;16.30;59.50;;;;;;5058588;28;20439;-80
2022/01/14 09:38:05;;;;;;;3.70;3.20;;;16.30;59.30;;;;;;5058694;28;20458;-80
2022/01/14 09:40:33;;;;;;;5.03;4.03;;;16.30;59.40;;;;;;5059063;28;20900;-78
2022/01/14 09:43:01;;;;;;;5.17;3.37;;;16.30;59.30;;;;;;5059719;28;20462;-79
2022/01/14 09:45:51;;;;;;;3.57;3.27;;;16.30;59.40;;;;;;5065249;28;20482;-79
2022/01/14 09:48:19;;;;;;;5.50;3.50;;;16.40;59.50;;;;;;5058576;28;20557;-79
2022/01/14 09:50:49;;;;;;;4.90;4.00;;;16.30;59.30;;;;;;5063428;28;20553;-79
2022/01/14 09:53:17;;;;;;;4.07;3.67;;;16.40;59.40;;;;;;5052642;28;20455;-79
2022/01/14 09:55:45;;;;;;;3.80;3.50;;;16.30;59.30;;;;;;5050353;28;20526;-79
2022/01/14 09:58:12;;;;;;;3.57;3.27;;;16.30;59.30;;;;;;5056801;28;20529;-79
2022/01/14 10:00:40;;;;;;;4.87;4.00;;;16.30;59.30;;;;;;5058645;28;20573;-80
2022/01/14 10:03:23;;;;;;;5.47;3.77;;;16.40;59.50;;;;;;5057904;28;20509;-80
2022/01/14 10:05:56;;;;;;;4.03;3.60;;;16.40;59.50;;;;;;5054183;28;20461;-80
2022/01/14 10:08:26;;;;;;;4.03;3.00;;;16.30;59.40;;;;;;5060246;28;20534;-80
2022/01/14 10:10:56;;;;;;;7.40;3.80;;;16.40;59.40;;;;;;5058536;28;20451;-79
2022/01/14 10:13:24;;;;;;;4.40;3.80;;;16.40;59.50;;;;;;5060054;28;20435;-79
2022/01/14 10:15:53;;;;;;;7.87;3.77;;;16.40;59.50;;;;;;5061150;28;20431;-79
2022/01/14 10:18:23;;;;;;;4.00;3.57;;;16.40;59.40;;;;;;5061221;28;20445;-79
2022/01/14 10:20:51;;;;;;;3.53;3.23;;;16.40;59.40;;;;;;5062867;28;20474;-79
2022/01/14 10:23:35;;;;;;;6.70;4.20;;;16.40;59.40;;;;;;5063923;28;20453;-79
2022/01/14 10:26:04;;;;;;;3.63;3.33;;;16.40;59.40;;;;;;5063307;28;20508;-79
2022/01/14 10:28:32;;;;;;;3.47;3.13;;;16.50;59.50;;;;;;5063028;28;20499;-80
2022/01/14 10:31:01;;;;;;;8.20;4.13;;;16.50;59.40;;;;;;5063552;28;20529;-79
2022/01/14 10:33:30;;;;;;;3.97;2.90;;;16.50;59.40;;;;;;5062301;28;20470;-80
2022/01/14 10:35:58;;;;;;;4.00;3.70;;;16.50;59.40;;;;;;5062372;28;20468;-80
2022/01/14 10:38:28;;;;;;;4.80;3.63;;;16.50;59.30;;;;;;5046182;28;20431;-80
2022/01/14 10:40:58;;;;;;;5.57;3.67;;;16.50;59.40;;;;;;5062710;28;20489;-80
2022/01/14 10:43:32;;;;;;;7.00;3.53;;;16.60;59.50;;;;;;5064000;28;20476;-80
2022/01/14 10:46:00;;;;;;;9.97;3.60;;;16.60;59.50;;;;;;5053749;28;20453;-80
2022/01/14 10:48:31;;;;;;;3.80;3.50;;;16.60;59.50;;;;;;5060617;28;20474;-80
2022/01/14 10:50:59;;;;;;;4.07;3.67;;;16.60;59.50;;;;;;5061805;28;20439;-80
2022/01/14 10:53:30;;;;;;;5.60;3.43;;;16.60;59.40;;;;;;5062524;28;20474;-79
2022/01/14 10:56:00;;;;;;;5.17;3.23;;;16.60;59.40;;;;;;5063821;28;20418;-79
2022/01/14 10:58:29;;;;;;;5.43;3.80;;;16.60;59.50;;;;;;5061008;28;20446;-79
2022/01/14 11:01:04;;;;;;;4.77;3.43;;;16.60;59.40;;;;;;5062810;28;20438;-79
2022/01/14 11:03:34;;;;;;;4.70;3.87;;;16.60;59.50;;;;;;5060191;28;20443;-79
2022/01/14 11:06:22;;;;;;;4.97;3.67;;;16.60;59.50;;;;;;5042714;28;21034;-79
2022/01/14 11:08:55;;;;;;;3.30;3.00;;;16.70;59.50;;;;;;5043542;28;20499;-79
2022/01/14 11:11:24;;;;;;;4.10;3.40;;;16.70;59.40;;;;;;5061041;28;20434;-79
2022/01/14 11:13:54;;;;;;;4.67;3.60;;;16.70;59.50;;;;;;5063448;28;20431;-79
2022/01/14 11:16:22;;;;;;;5.63;3.23;;;16.70;59.60;;;;;;5062761;28;20446;-79
2022/01/14 11:18:50;;;;;;;4.17;3.60;;;16.70;59.40;;;;;;5061176;28;20961;-79
2022/01/14 11:24:07;;;;;;;5.10;3.53;;;16.70;59.50;;;;;;5063429;28;20435;-79
2022/01/14 11:26:36;;;;;;;4.60;3.00;;;16.80;59.60;;;;;;5065826;28;20441;-79
2022/01/14 11:29:08;;;;;;;4.10;3.80;;;16.80;59.50;;;;;;5064182;28;20453;-80
2022/01/14 11:31:37;;;;;;;5.17;3.77;;;16.80;59.50;;;;;;5063380;28;20504;-79
2022/01/14 11:34:06;;;;;;;7.50;3.60;;;16.80;59.40;;;;;;5058870;28;20488;-79
2022/01/14 11:36:50;;;;;;;4.20;3.57;;;16.80;59.50;;;;;;5058901;28;20497;-80
2022/01/14 11:39:20;;;;;;;3.87;3.47;;;16.80;59.60;;;;;;5048801;28;20561;-79
2022/01/14 11:41:51;;;;;;;3.70;3.40;;;16.80;59.50;;;;;;5060734;28;20429;-79
2022/01/14 11:44:46;;;;;;;4.10;3.57;;;16.80;59.50;;;;;;5061193;28;20435;-79
2022/01/14 11:47:51;;;;;;;6.90;3.57;;;16.80;59.50;;;;;;5061495;28;20450;-79
2022/01/14 11:50:47;;;;;;;3.97;3.27;;;16.80;59.50;;;;;;5060231;28;20517;-79
2022/01/14 11:53:36;;;;;;;6.90;3.53;;;16.80;59.60;;;;;;5061068;28;20435;-80
2022/01/14 11:56:08;;;;;;;5.67;3.60;;;16.80;59.60;;;;;;5047294;28;20466;-80
2022/01/14 11:58:36;;;;;;;4.40;3.50;;;16.90;59.60;;;;;;5045635;28;20443;-80
2022/01/14 12:01:04;;;;;;;4.03;3.63;;;16.90;59.70;;;;;;5059288;28;20455;-80
2022/01/14 12:03:33;;;;;;;4.10;3.70;;;16.90;59.60;;;;;;5059559;28;20439;-81
2022/01/14 12:06:05;;;;;;;3.93;3.20;;;16.90;59.50;;;;;;5061855;28;20451;-80
2022/01/14 12:08:33;;;;;;;5.43;3.90;;;17.00;59.50;;;;;;5058117;28;20458;-80
2022/01/14 12:11:20;;;;;;;3.73;3.43;;;17.00;59.50;;;;;;5057440;28;20506;-80
2022/01/14 12:14:00;;;;;;;3.70;3.33;;;17.00;59.50;;;;;;5051055;28;20431;-80
2022/01/14 12:16:44;;;;;;;4.37;3.53;;;17.00;59.50;;;;;;5054886;28;20480;-81
2022/01/14 12:19:16;;;;;;;4.67;3.37;;;16.90;59.50;;;;;;5050476;28;20446;-80
2022/01/14 12:22:10;;;;;;;4.20;3.47;;;16.90;59.40;;;;;;5047566;28;20458;-81
2022/01/14 12:24:39;;;;;;;4.50;3.50;;;16.90;59.40;;;;;;5063688;28;20465;-80
2022/01/14 12:27:47;;;;;;;4.60;3.43;;;16.90;59.50;;;;;;5062981;28;20545;-81
2022/01/14 12:30:23;;;;;;;3.50;3.23;;;16.90;59.60;;;;;;5057468;28;20481;-81
2022/01/14 12:32:54;;;;;;;4.50;3.40;;;16.90;59.60;;;;;;5064927;28;21008;-81
2022/01/14 12:35:27;;;;;;;6.23;3.60;;;16.90;59.60;;;;;;5084325;28;20899;-81
2022/01/14 12:37:56;;;;;;;4.23;3.00;;;16.90;59.60;;;;;;5070068;28;20478;-81
2022/01/14 12:40:25;;;;;;;4.30;3.73;;;16.90;59.60;;;;;;5053404;28;20486;-81
2022/01/14 12:42:56;;;;;;;5.10;3.47;;;16.90;59.70;;;;;;5063261;28;20484;-81
2022/01/14 12:45:28;;;;;;;5.47;3.40;;;17.00;59.70;;;;;;5064137;28;20472;-81
2022/01/14 12:48:31;;;;;;;3.67;3.37;;;17.00;59.60;;;;;;5067013;28;20407;-81
2022/01/14 12:51:07;;;;;;;4.43;3.60;;;17.00;59.60;;;;;;5061086;28;20477;-81
2022/01/14 12:53:37;;;;;;;6.00;3.33;;;17.00;59.60;;;;;;5067789;28;20438;-82
2022/01/14 12:56:14;;;;;;;2.77;2.47;;;17.00;60.30;;;;;;5061187;28;20446;-82
2022/01/14 12:59:01;;;;;;;6.20;3.50;;;17.00;59.70;;;;;;5060425;28;20434;-83
2022/01/14 13:01:35;;;;;;;5.23;3.47;;;17.00;59.60;;;;;;5055589;28;20449;-82
2022/01/14 13:04:08;;;;;;;5.17;3.40;;;16.90;59.60;;;;;;5067644;28;20443;-82
2022/01/14 13:06:43;;;;;;;3.50;3.10;;;17.00;59.70;;;;;;5066944;28;20469;-82
2022/01/14 13:09:11;;;;;;;3.50;2.90;;;17.00;59.70;;;;;;5061728;28;20534;-82
2022/01/14 13:11:54;;;;;;;6.93;3.20;;;17.00;59.80;;;;;;5056336;28;20458;-82
2022/01/14 13:14:28;;;;;;;5.80;3.10;;;17.00;59.70;;;;;;5055954;28;20477;-82
2022/01/14 13:16:57;;;;;;;3.93;3.40;;;17.00;59.80;;;;;;5056320;28;20482;-83
2022/01/14 13:19:27;;;;;;;8.80;3.30;;;17.00;59.80;;;;;;5064365;28;20474;-83
2022/01/14 13:21:55;;;;;;;4.37;3.60;;;17.00;59.80;;;;;;5061631;28;20465;-81
2022/01/14 13:24:24;;;;;;;6.30;3.40;;;17.00;59.80;;;;;;5063844;28;20454;-81